sensor_id;sensor_type;location;lat;lon;timestamp;temperature;humidity
41533;DHT22;27262;-35.248;149.138;2023-07-13T00:00:05;17.20;60.60
41533;DHT22;27262;-35.248;149.138;2023-07-13T00:02:41;17.30;60.60
41533;DHT22;27262;-35.248;149.138;2023-07-13T00:05:13;17.30;60.60
41533;DHT22;27262;-35.248;149.138;2023-07-13T00:07:43;17.20;60.50
41533;DHT22;27262;-35.248;149.138;2023-07-13T00:10:16;17.30;60.50
41533;DHT22;27262;-35.248;149.138;2023-07-13T00:12:47;17.30;60.40
41533;DHT22;27262;-35.248;149.138;2023-07-13T00:15:25;17.30;60.40
41533;DHT22;27262;-35.248;149.138;2023-07-13T00:17:56;17.30;60.40
41533;DHT22;27262;-35.248;149.138;2023-07-13T00:20:26;17.30;60.40
41533;DHT22;27262;-35.248;149.138;2023-07-13T00:22:57;17.30;60.30
41533;DHT22;27262;-35.248;149.138;2023-07-13T00:25:27;17.30;60.30
41533;DHT22;27262;-35.248;149.138;2023-07-13T00:27:58;17.40;60.30
41533;DHT22;27262;-35.248;149.138;2023-07-13T00:30:28;17.40;60.30
41533;DHT22;27262;-35.248;149.138;2023-07-13T00:32:59;17.40;60.30
41533;DHT22;27262;-35.248;149.138;2023-07-13T00:35:45;17.40;60.30
41533;DHT22;27262;-35.248;149.138;2023-07-13T00:38:16;17.40;60.30
41533;DHT22;27262;-35.248;149.138;2023-07-13T00:40:58;17.40;60.20
41533;DHT22;27262;-35.248;149.138;2023-07-13T00:43:29;17.40;60.20
41533;DHT22;27262;-35.248;149.138;2023-07-13T00:48:32;17.50;60.20
41533;DHT22;27262;-35.248;149.138;2023-07-13T00:51:04;17.50;60.10
41533;DHT22;27262;-35.248;149.138;2023-07-13T00:53:35;17.50;60.10
41533;DHT22;27262;-35.248;149.138;2023-07-13T00:56:05;17.50;60.10
41533;DHT22;27262;-35.248;149.138;2023-07-13T00:58:37;17.50;60.10
41533;DHT22;27262;-35.248;149.138;2023-07-13T01:01:07;17.50;60.10
41533;DHT22;27262;-35.248;149.138;2023-07-13T01:03:38;17.50;60.10
41533;DHT22;27262;-35.248;149.138;2023-07-13T01:06:10;17.60;60.10
41533;DHT22;27262;-35.248;149.138;2023-07-13T01:08:42;17.60;60.10
41533;DHT22;27262;-35.248;149.138;2023-07-13T01:11:13;17.60;60.90
41533;DHT22;27262;-35.248;149.138;2023-07-13T01:13:48;17.60;60.10
41533;DHT22;27262;-35.248;149.138;2023-07-13T01:16:26;17.60;60.10
41533;DHT22;27262;-35.248;149.138;2023-07-13T01:18:58;17.60;60.00
41533;DHT22;27262;-35.248;149.138;2023-07-13T01:21:32;17.60;60.00
41533;DHT22;27262;-35.248;149.138;2023-07-13T01:24:02;17.70;60.10
41533;DHT22;27262;-35.248;149.138;2023-07-13T01:26:32;17.70;60.10
41533;DHT22;27262;-35.248;149.138;2023-07-13T01:29:03;17.70;60.00
41533;DHT22;27262;-35.248;149.138;2023-07-13T01:31:33;17.70;60.00
41533;DHT22;27262;-35.248;149.138;2023-07-13T01:34:04;17.70;60.00
41533;DHT22;27262;-35.248;149.138;2023-07-13T01:36:35;17.70;59.90
41533;DHT22;27262;-35.248;149.138;2023-07-13T01:39:06;17.70;59.90
41533;DHT22;27262;-35.248;149.138;2023-07-13T01:41:36;17.70;59.90
41533;DHT22;27262;-35.248;149.138;2023-07-13T01:44:07;17.80;59.90
41533;DHT22;27262;-35.248;149.138;2023-07-13T01:46:38;17.80;59.90
41533;DHT22;27262;-35.248;149.138;2023-07-13T01:49:09;17.80;59.90
41533;DHT22;27262;-35.248;149.138;2023-07-13T01:51:40;17.80;59.80
41533;DHT22;27262;-35.248;149.138;2023-07-13T01:54:10;17.80;59.80
41533;DHT22;27262;-35.248;149.138;2023-07-13T01:56:40;17.80;59.80
41533;DHT22;27262;-35.248;149.138;2023-07-13T01:59:11;17.80;59.80
41533;DHT22;27262;-35.248;149.138;2023-07-13T02:01:41;17.90;59.80
41533;DHT22;27262;-35.248;149.138;2023-07-13T02:04:12;17.90;59.90
41533;DHT22;27262;-35.248;149.138;2023-07-13T02:06:43;17.90;59.90
41533;DHT22;27262;-35.248;149.138;2023-07-13T02:09:13;17.90;59.90
41533;DHT22;27262;-35.248;149.138;2023-07-13T02:11:43;18.00;59.90
41533;DHT22;27262;-35.248;149.138;2023-07-13T02:14:14;18.00;59.90
41533;DHT22;27262;-35.248;149.138;2023-07-13T02:16:45;18.00;59.90
41533;DHT22;27262;-35.248;149.138;2023-07-13T02:19:15;18.00;59.90
41533;DHT22;27262;-35.248;149.138;2023-07-13T02:21:45;18.00;59.90
41533;DHT22;27262;-35.248;149.138;2023-07-13T02:24:16;18.10;59.90
41533;DHT22;27262;-35.248;149.138;2023-07-13T02:26:49;18.10;59.90
41533;DHT22;27262;-35.248;149.138;2023-07-13T02:29:19;18.10;59.90
41533;DHT22;27262;-35.248;149.138;2023-07-13T02:31:50;18.10;59.90
41533;DHT22;27262;-35.248;149.138;2023-07-13T02:34:20;18.10;59.90
41533;DHT22;27262;-35.248;149.138;2023-07-13T02:36:50;18.10;59.80
41533;DHT22;27262;-35.248;149.138;2023-07-13T02:39:21;18.20;59.90
41533;DHT22;27262;-35.248;149.138;2023-07-13T02:41:51;18.20;59.90
41533;DHT22;27262;-35.248;149.138;2023-07-13T02:44:21;18.20;59.90
41533;DHT22;27262;-35.248;149.138;2023-07-13T02:46:52;18.30;60.00
41533;DHT22;27262;-35.248;149.138;2023-07-13T02:49:23;18.30;59.90
41533;DHT22;27262;-35.248;149.138;2023-07-13T02:51:53;18.20;59.90
41533;DHT22;27262;-35.248;149.138;2023-07-13T02:54:23;18.30;59.90
41533;DHT22;27262;-35.248;149.138;2023-07-13T02:56:54;18.30;59.80
41533;DHT22;27262;-35.248;149.138;2023-07-13T02:59:24;18.30;59.80
41533;DHT22;27262;-35.248;149.138;2023-07-13T03:01:55;18.40;59.90
41533;DHT22;27262;-35.248;149.138;2023-07-13T03:04:25;18.40;59.80
41533;DHT22;27262;-35.248;149.138;2023-07-13T03:06:55;18.40;59.80
41533;DHT22;27262;-35.248;149.138;2023-07-13T03:09:27;18.40;59.80
41533;DHT22;27262;-35.248;149.138;2023-07-13T03:11:58;18.50;59.80
41533;DHT22;27262;-35.248;149.138;2023-07-13T03:14:28;18.50;59.80
41533;DHT22;27262;-35.248;149.138;2023-07-13T03:16:59;18.50;59.70
41533;DHT22;27262;-35.248;149.138;2023-07-13T03:19:30;18.50;59.70
41533;DHT22;27262;-35.248;149.138;2023-07-13T03:22:00;18.50;59.70
41533;DHT22;27262;-35.248;149.138;2023-07-13T03:24:33;18.50;59.60
41533;DHT22;27262;-35.248;149.138;2023-07-13T03:27:07;18.50;59.60
41533;DHT22;27262;-35.248;149.138;2023-07-13T03:29:37;18.60;59.60
41533;DHT22;27262;-35.248;149.138;2023-07-13T03:32:08;18.60;59.60
41533;DHT22;27262;-35.248;149.138;2023-07-13T03:34:38;18.60;59.60
41533;DHT22;27262;-35.248;149.138;2023-07-13T03:37:09;18.60;59.60
41533;DHT22;27262;-35.248;149.138;2023-07-13T03:39:39;18.60;59.60
41533;DHT22;27262;-35.248;149.138;2023-07-13T03:42:09;18.60;59.60
41533;DHT22;27262;-35.248;149.138;2023-07-13T03:44:41;18.70;59.60
41533;DHT22;27262;-35.248;149.138;2023-07-13T03:47:15;18.70;59.60
41533;DHT22;27262;-35.248;149.138;2023-07-13T03:49:45;18.70;59.60
41533;DHT22;27262;-35.248;149.138;2023-07-13T03:52:16;18.60;59.60
41533;DHT22;27262;-35.248;149.138;2023-07-13T03:54:46;18.60;59.60
41533;DHT22;27262;-35.248;149.138;2023-07-13T03:57:18;18.60;59.70
41533;DHT22;27262;-35.248;149.138;2023-07-13T03:59:48;18.70;59.80
41533;DHT22;27262;-35.248;149.138;2023-07-13T04:02:19;18.60;59.70
41533;DHT22;27262;-35.248;149.138;2023-07-13T04:04:50;18.70;59.80
41533;DHT22;27262;-35.248;149.138;2023-07-13T04:07:20;18.70;59.80
41533;DHT22;27262;-35.248;149.138;2023-07-13T04:09:50;18.70;60.50
41533;DHT22;27262;-35.248;149.138;2023-07-13T04:12:21;18.70;59.80
41533;DHT22;27262;-35.248;149.138;2023-07-13T04:14:51;18.70;59.80
41533;DHT22;27262;-35.248;149.138;2023-07-13T04:17:21;18.70;59.80
41533;DHT22;27262;-35.248;149.138;2023-07-13T04:19:52;18.70;59.80
41533;DHT22;27262;-35.248;149.138;2023-07-13T04:22:22;18.70;59.80
41533;DHT22;27262;-35.248;149.138;2023-07-13T04:24:52;18.70;59.80
41533;DHT22;27262;-35.248;149.138;2023-07-13T04:27:23;18.70;59.80
41533;DHT22;27262;-35.248;149.138;2023-07-13T04:29:53;18.70;59.90
41533;DHT22;27262;-35.248;149.138;2023-07-13T04:32:23;18.70;59.90
41533;DHT22;27262;-35.248;149.138;2023-07-13T04:34:54;18.70;59.90
41533;DHT22;27262;-35.248;149.138;2023-07-13T04:37:26;18.80;59.90
41533;DHT22;27262;-35.248;149.138;2023-07-13T04:39:56;18.80;59.90
41533;DHT22;27262;-35.248;149.138;2023-07-13T04:42:27;18.80;59.90
41533;DHT22;27262;-35.248;149.138;2023-07-13T04:44:57;18.80;59.80
41533;DHT22;27262;-35.248;149.138;2023-07-13T04:47:30;18.80;59.90
41533;DHT22;27262;-35.248;149.138;2023-07-13T04:50:01;18.80;59.90
41533;DHT22;27262;-35.248;149.138;2023-07-13T04:52:31;18.80;59.90
41533;DHT22;27262;-35.248;149.138;2023-07-13T04:55:02;18.80;59.80
41533;DHT22;27262;-35.248;149.138;2023-07-13T04:57:32;18.80;59.80
41533;DHT22;27262;-35.248;149.138;2023-07-13T05:00:04;18.80;59.80
41533;DHT22;27262;-35.248;149.138;2023-07-13T05:02:35;18.90;59.80
41533;DHT22;27262;-35.248;149.138;2023-07-13T05:05:06;18.90;59.80
41533;DHT22;27262;-35.248;149.138;2023-07-13T05:07:37;18.90;59.70
41533;DHT22;27262;-35.248;149.138;2023-07-13T05:10:08;18.90;59.70
41533;DHT22;27262;-35.248;149.138;2023-07-13T05:12:39;18.90;59.70
41533;DHT22;27262;-35.248;149.138;2023-07-13T05:15:10;18.90;59.60
41533;DHT22;27262;-35.248;149.138;2023-07-13T05:17:41;19.00;59.60
41533;DHT22;27262;-35.248;149.138;2023-07-13T05:20:12;19.00;59.60
41533;DHT22;27262;-35.248;149.138;2023-07-13T05:22:43;19.00;59.60
41533;DHT22;27262;-35.248;149.138;2023-07-13T05:25:14;19.00;59.60
41533;DHT22;27262;-35.248;149.138;2023-07-13T05:27:44;19.10;59.60
41533;DHT22;27262;-35.248;149.138;2023-07-13T05:30:16;19.00;59.60
41533;DHT22;27262;-35.248;149.138;2023-07-13T05:32:46;19.10;59.60
41533;DHT22;27262;-35.248;149.138;2023-07-13T05:35:17;19.10;59.60
41533;DHT22;27262;-35.248;149.138;2023-07-13T05:37:47;19.00;59.60
41533;DHT22;27262;-35.248;149.138;2023-07-13T05:40:17;19.10;59.60
41533;DHT22;27262;-35.248;149.138;2023-07-13T05:42:48;19.10;59.70
41533;DHT22;27262;-35.248;149.138;2023-07-13T05:45:18;19.10;59.70
41533;DHT22;27262;-35.248;149.138;2023-07-13T05:47:48;19.10;59.70
41533;DHT22;27262;-35.248;149.138;2023-07-13T05:50:19;19.10;59.60
41533;DHT22;27262;-35.248;149.138;2023-07-13T05:52:50;19.10;59.60
41533;DHT22;27262;-35.248;149.138;2023-07-13T05:55:32;19.10;59.70
41533;DHT22;27262;-35.248;149.138;2023-07-13T05:58:03;19.10;59.60
41533;DHT22;27262;-35.248;149.138;2023-07-13T06:00:33;19.10;59.70
41533;DHT22;27262;-35.248;149.138;2023-07-13T06:03:04;19.10;59.50
41533;DHT22;27262;-35.248;149.138;2023-07-13T06:05:37;19.10;59.60
41533;DHT22;27262;-35.248;149.138;2023-07-13T06:08:08;19.10;59.60
41533;DHT22;27262;-35.248;149.138;2023-07-13T06:10:39;19.10;59.60
41533;DHT22;27262;-35.248;149.138;2023-07-13T06:13:09;19.10;59.50
41533;DHT22;27262;-35.248;149.138;2023-07-13T06:15:40;19.10;59.50
41533;DHT22;27262;-35.248;149.138;2023-07-13T06:18:10;19.10;59.60
41533;DHT22;27262;-35.248;149.138;2023-07-13T06:20:40;19.10;59.60
41533;DHT22;27262;-35.248;149.138;2023-07-13T06:23:11;19.10;59.60
41533;DHT22;27262;-35.248;149.138;2023-07-13T06:25:42;19.10;59.60
41533;DHT22;27262;-35.248;149.138;2023-07-13T06:28:13;19.10;59.50
41533;DHT22;27262;-35.248;149.138;2023-07-13T06:30:44;19.10;59.50
41533;DHT22;27262;-35.248;149.138;2023-07-13T06:33:14;19.10;59.50
41533;DHT22;27262;-35.248;149.138;2023-07-13T06:35:44;19.10;59.40
41533;DHT22;27262;-35.248;149.138;2023-07-13T06:38:14;19.10;59.50
41533;DHT22;27262;-35.248;149.138;2023-07-13T06:40:45;19.10;59.50
41533;DHT22;27262;-35.248;149.138;2023-07-13T06:43:15;19.20;59.60
41533;DHT22;27262;-35.248;149.138;2023-07-13T06:45:48;19.10;59.50
41533;DHT22;27262;-35.248;149.138;2023-07-13T06:48:20;19.10;59.50
41533;DHT22;27262;-35.248;149.138;2023-07-13T06:50:51;19.10;59.40
41533;DHT22;27262;-35.248;149.138;2023-07-13T06:53:22;19.10;59.50
41533;DHT22;27262;-35.248;149.138;2023-07-13T06:55:53;19.10;59.50
41533;DHT22;27262;-35.248;149.138;2023-07-13T06:58:23;19.10;59.40
41533;DHT22;27262;-35.248;149.138;2023-07-13T07:00:54;19.20;59.60
41533;DHT22;27262;-35.248;149.138;2023-07-13T07:03:24;19.10;59.50
41533;DHT22;27262;-35.248;149.138;2023-07-13T07:06:17;19.10;59.80
41533;DHT22;27262;-35.248;149.138;2023-07-13T07:08:48;19.20;60.30
41533;DHT22;27262;-35.248;149.138;2023-07-13T07:11:21;19.20;60.20
41533;DHT22;27262;-35.248;149.138;2023-07-13T07:13:54;19.20;60.20
41533;DHT22;27262;-35.248;149.138;2023-07-13T07:16:25;19.20;60.20
41533;DHT22;27262;-35.248;149.138;2023-07-13T07:18:57;19.20;60.30
41533;DHT22;27262;-35.248;149.138;2023-07-13T07:21:27;19.20;60.20
41533;DHT22;27262;-35.248;149.138;2023-07-13T07:23:57;19.30;60.30
41533;DHT22;27262;-35.248;149.138;2023-07-13T07:26:31;19.30;60.20
41533;DHT22;27262;-35.248;149.138;2023-07-13T07:29:18;19.30;60.30
41533;DHT22;27262;-35.248;149.138;2023-07-13T07:31:51;19.40;60.30
41533;DHT22;27262;-35.248;149.138;2023-07-13T07:34:24;19.40;60.10
41533;DHT22;27262;-35.248;149.138;2023-07-13T07:36:58;19.40;60.20
41533;DHT22;27262;-35.248;149.138;2023-07-13T07:39:32;19.40;60.00
41533;DHT22;27262;-35.248;149.138;2023-07-13T07:42:02;19.50;59.90
41533;DHT22;27262;-35.248;149.138;2023-07-13T07:44:33;19.50;59.90
41533;DHT22;27262;-35.248;149.138;2023-07-13T07:47:05;19.50;60.00
41533;DHT22;27262;-35.248;149.138;2023-07-13T07:49:36;19.50;60.00
41533;DHT22;27262;-35.248;149.138;2023-07-13T07:52:08;19.50;60.00
41533;DHT22;27262;-35.248;149.138;2023-07-13T07:54:38;19.50;59.80
41533;DHT22;27262;-35.248;149.138;2023-07-13T07:57:11;19.50;59.70
41533;DHT22;27262;-35.248;149.138;2023-07-13T08:00:02;19.50;59.70
41533;DHT22;27262;-35.248;149.138;2023-07-13T08:02:35;19.50;59.60
41533;DHT22;27262;-35.248;149.138;2023-07-13T08:05:09;19.50;59.50
41533;DHT22;27262;-35.248;149.138;2023-07-13T08:07:42;19.50;59.50
41533;DHT22;27262;-35.248;149.138;2023-07-13T08:10:13;19.50;59.40
41533;DHT22;27262;-35.248;149.138;2023-07-13T08:12:43;19.50;59.30
41533;DHT22;27262;-35.248;149.138;2023-07-13T08:15:33;19.70;59.20
41533;DHT22;27262;-35.248;149.138;2023-07-13T08:18:04;19.80;58.90
41533;DHT22;27262;-35.248;149.138;2023-07-13T08:20:40;20.10;58.40
41533;DHT22;27262;-35.248;149.138;2023-07-13T08:23:10;20.00;58.60
41533;DHT22;27262;-35.248;149.138;2023-07-13T08:25:41;20.30;58.00
41533;DHT22;27262;-35.248;149.138;2023-07-13T08:28:11;20.20;58.60
41533;DHT22;27262;-35.248;149.138;2023-07-13T08:30:42;20.10;58.70
41533;DHT22;27262;-35.248;149.138;2023-07-13T08:33:12;20.00;59.10
41533;DHT22;27262;-35.248;149.138;2023-07-13T08:35:45;20.00;59.40
41533;DHT22;27262;-35.248;149.138;2023-07-13T08:38:22;19.90;59.50
41533;DHT22;27262;-35.248;149.138;2023-07-13T08:40:56;20.20;58.90
41533;DHT22;27262;-35.248;149.138;2023-07-13T08:43:30;20.10;58.90
41533;DHT22;27262;-35.248;149.138;2023-07-13T08:46:15;20.00;59.00
41533;DHT22;27262;-35.248;149.138;2023-07-13T08:48:55;19.90;59.00
41533;DHT22;27262;-35.248;149.138;2023-07-13T08:57:00;19.90;59.10
41533;DHT22;27262;-35.248;149.138;2023-07-13T08:59:33;19.80;59.10
41533;DHT22;27262;-35.248;149.138;2023-07-13T09:05:08;19.80;59.00
41533;DHT22;27262;-35.248;149.138;2023-07-13T09:10:51;19.80;59.00
41533;DHT22;27262;-35.248;149.138;2023-07-13T09:13:37;19.80;59.20
41533;DHT22;27262;-35.248;149.138;2023-07-13T09:16:11;19.80;59.10
41533;DHT22;27262;-35.248;149.138;2023-07-13T09:18:48;19.80;59.20
41533;DHT22;27262;-35.248;149.138;2023-07-13T09:21:25;19.80;59.10
41533;DHT22;27262;-35.248;149.138;2023-07-13T09:26:48;19.80;59.20
41533;DHT22;27262;-35.248;149.138;2023-07-13T09:29:30;19.70;59.20
41533;DHT22;27262;-35.248;149.138;2023-07-13T09:32:06;19.80;59.20
41533;DHT22;27262;-35.248;149.138;2023-07-13T09:34:38;19.70;59.20
41533;DHT22;27262;-35.248;149.138;2023-07-13T09:37:08;19.70;59.20
41533;DHT22;27262;-35.248;149.138;2023-07-13T09:39:42;19.70;59.20
41533;DHT22;27262;-35.248;149.138;2023-07-13T09:42:16;19.70;59.10
41533;DHT22;27262;-35.248;149.138;2023-07-13T09:44:56;19.70;59.10
41533;DHT22;27262;-35.248;149.138;2023-07-13T09:47:29;19.70;59.10
41533;DHT22;27262;-35.248;149.138;2023-07-13T09:50:02;19.70;59.10
41533;DHT22;27262;-35.248;149.138;2023-07-13T09:53:00;19.70;59.20
41533;DHT22;27262;-35.248;149.138;2023-07-13T09:55:32;19.70;59.00
41533;DHT22;27262;-35.248;149.138;2023-07-13T09:58:22;19.70;59.20
41533;DHT22;27262;-35.248;149.138;2023-07-13T10:03:33;19.70;59.20
41533;DHT22;27262;-35.248;149.138;2023-07-13T10:06:16;19.60;59.10
41533;DHT22;27262;-35.248;149.138;2023-07-13T10:08:50;19.60;59.20
41533;DHT22;27262;-35.248;149.138;2023-07-13T10:11:27;19.60;59.10
41533;DHT22;27262;-35.248;149.138;2023-07-13T10:14:17;19.60;59.20
41533;DHT22;27262;-35.248;149.138;2023-07-13T10:17:02;19.60;59.10
41533;DHT22;27262;-35.248;149.138;2023-07-13T10:19:35;19.60;59.10
41533;DHT22;27262;-35.248;149.138;2023-07-13T10:22:24;19.60;59.20
41533;DHT22;27262;-35.248;149.138;2023-07-13T10:24:55;19.60;59.10
41533;DHT22;27262;-35.248;149.138;2023-07-13T10:27:35;19.60;59.20
41533;DHT22;27262;-35.248;149.138;2023-07-13T10:30:29;19.60;59.20
41533;DHT22;27262;-35.248;149.138;2023-07-13T10:33:02;19.60;59.10
41533;DHT22;27262;-35.248;149.138;2023-07-13T10:35:34;19.60;59.30
41533;DHT22;27262;-35.248;149.138;2023-07-13T10:38:11;19.60;59.30
41533;DHT22;27262;-35.248;149.138;2023-07-13T10:43:41;19.60;59.30
41533;DHT22;27262;-35.248;149.138;2023-07-13T10:46:15;19.70;59.40
41533;DHT22;27262;-35.248;149.138;2023-07-13T10:48:49;20.00;59.20
41533;DHT22;27262;-35.248;149.138;2023-07-13T10:51:22;20.10;58.90
41533;DHT22;27262;-35.248;149.138;2023-07-13T10:54:19;20.20;58.90
41533;DHT22;27262;-35.248;149.138;2023-07-13T10:57:31;20.40;58.70
41533;DHT22;27262;-35.248;149.138;2023-07-13T11:00:15;20.50;58.80
41533;DHT22;27262;-35.248;149.138;2023-07-13T11:02:57;20.50;58.70
41533;DHT22;27262;-35.248;149.138;2023-07-13T11:05:33;20.60;58.70
41533;DHT22;27262;-35.248;149.138;2023-07-13T11:10:53;20.80;58.50
41533;DHT22;27262;-35.248;149.138;2023-07-13T11:16:36;20.90;58.30
41533;DHT22;27262;-35.248;149.138;2023-07-13T11:22:10;21.00;58.40
41533;DHT22;27262;-35.248;149.138;2023-07-13T11:24:55;21.10;58.30
41533;DHT22;27262;-35.248;149.138;2023-07-13T11:27:50;21.10;58.30
41533;DHT22;27262;-35.248;149.138;2023-07-13T11:33:59;21.00;58.40
41533;DHT22;27262;-35.248;149.138;2023-07-13T11:36:27;21.10;58.40
41533;DHT22;27262;-35.248;149.138;2023-07-13T11:39:51;20.90;58.60
41533;DHT22;27262;-35.248;149.138;2023-07-13T11:42:16;20.90;58.80
41533;DHT22;27262;-35.248;149.138;2023-07-13T11:44:53;20.80;58.70
41533;DHT22;27262;-35.248;149.138;2023-07-13T11:47:40;20.70;58.60
41533;DHT22;27262;-35.248;149.138;2023-07-13T11:50:20;20.70;58.70
41533;DHT22;27262;-35.248;149.138;2023-07-13T11:52:52;20.70;58.70
41533;DHT22;27262;-35.248;149.138;2023-07-13T11:55:25;20.60;58.80
41533;DHT22;27262;-35.248;149.138;2023-07-13T11:57:59;20.60;58.70
41533;DHT22;27262;-35.248;149.138;2023-07-13T12:00:34;20.50;58.60
41533;DHT22;27262;-35.248;149.138;2023-07-13T12:03:07;20.50;58.70
41533;DHT22;27262;-35.248;149.138;2023-07-13T12:05:38;20.40;58.60
41533;DHT22;27262;-35.248;149.138;2023-07-13T12:08:43;20.40;58.60
41533;DHT22;27262;-35.248;149.138;2023-07-13T12:11:18;20.30;58.70
41533;DHT22;27262;-35.248;149.138;2023-07-13T12:13:50;20.30;58.70
41533;DHT22;27262;-35.248;149.138;2023-07-13T12:16:34;20.30;58.70
41533;DHT22;27262;-35.248;149.138;2023-07-13T12:19:17;20.20;58.60
41533;DHT22;27262;-35.248;149.138;2023-07-13T12:21:49;20.20;58.60
41533;DHT22;27262;-35.248;149.138;2023-07-13T12:24:21;20.10;58.70
41533;DHT22;27262;-35.248;149.138;2023-07-13T12:27:04;20.10;58.70
41533;DHT22;27262;-35.248;149.138;2023-07-13T12:29:34;20.10;58.70
41533;DHT22;27262;-35.248;149.138;2023-07-13T12:32:09;20.10;58.70
41533;DHT22;27262;-35.248;149.138;2023-07-13T12:34:52;20.00;58.70
41533;DHT22;27262;-35.248;149.138;2023-07-13T12:37:24;20.00;58.70
41533;DHT22;27262;-35.248;149.138;2023-07-13T12:39:54;20.00;58.80
41533;DHT22;27262;-35.248;149.138;2023-07-13T12:42:26;19.90;58.80
41533;DHT22;27262;-35.248;149.138;2023-07-13T12:45:02;19.90;58.80
41533;DHT22;27262;-35.248;149.138;2023-07-13T12:47:41;19.90;58.80
41533;DHT22;27262;-35.248;149.138;2023-07-13T12:50:18;19.80;58.80
41533;DHT22;27262;-35.248;149.138;2023-07-13T12:52:54;19.80;58.80
41533;DHT22;27262;-35.248;149.138;2023-07-13T12:55:27;19.80;58.80
41533;DHT22;27262;-35.248;149.138;2023-07-13T12:58:04;19.80;58.90
41533;DHT22;27262;-35.248;149.138;2023-07-13T13:00:38;19.70;58.80
41533;DHT22;27262;-35.248;149.138;2023-07-13T13:05:59;19.70;58.80
41533;DHT22;27262;-35.248;149.138;2023-07-13T13:08:34;19.60;58.80
41533;DHT22;27262;-35.248;149.138;2023-07-13T13:11:04;19.60;58.90
41533;DHT22;27262;-35.248;149.138;2023-07-13T13:13:35;19.60;58.90
41533;DHT22;27262;-35.248;149.138;2023-07-13T13:16:29;19.50;58.80
41533;DHT22;27262;-35.248;149.138;2023-07-13T13:19:18;19.60;58.80
41533;DHT22;27262;-35.248;149.138;2023-07-13T13:21:50;19.50;58.80
41533;DHT22;27262;-35.248;149.138;2023-07-13T13:24:24;19.50;59.00
41533;DHT22;27262;-35.248;149.138;2023-07-13T13:26:54;19.50;59.00
41533;DHT22;27262;-35.248;149.138;2023-07-13T13:29:26;19.40;59.00
41533;DHT22;27262;-35.248;149.138;2023-07-13T13:31:56;19.30;59.00
41533;DHT22;27262;-35.248;149.138;2023-07-13T13:34:27;19.30;59.00
41533;DHT22;27262;-35.248;149.138;2023-07-13T13:36:58;19.30;59.00
41533;DHT22;27262;-35.248;149.138;2023-07-13T13:39:35;19.30;59.00
41533;DHT22;27262;-35.248;149.138;2023-07-13T13:42:09;19.30;59.00
41533;DHT22;27262;-35.248;149.138;2023-07-13T13:44:40;19.20;59.00
41533;DHT22;27262;-35.248;149.138;2023-07-13T13:47:31;19.20;59.00
41533;DHT22;27262;-35.248;149.138;2023-07-13T13:52:42;19.10;59.10
41533;DHT22;27262;-35.248;149.138;2023-07-13T13:55:20;19.10;59.10
41533;DHT22;27262;-35.248;149.138;2023-07-13T13:57:51;19.10;59.10
41533;DHT22;27262;-35.248;149.138;2023-07-13T14:00:22;19.00;59.10
41533;DHT22;27262;-35.248;149.138;2023-07-13T14:02:52;19.00;59.10
41533;DHT22;27262;-35.248;149.138;2023-07-13T14:05:26;19.00;59.10
41533;DHT22;27262;-35.248;149.138;2023-07-13T14:07:56;19.00;59.10
41533;DHT22;27262;-35.248;149.138;2023-07-13T14:10:27;19.00;59.10
41533;DHT22;27262;-35.248;149.138;2023-07-13T14:12:57;18.90;59.10
41533;DHT22;27262;-35.248;149.138;2023-07-13T14:15:29;18.90;59.10
41533;DHT22;27262;-35.248;149.138;2023-07-13T14:18:03;18.90;59.10
41533;DHT22;27262;-35.248;149.138;2023-07-13T14:20:34;18.90;59.20
41533;DHT22;27262;-35.248;149.138;2023-07-13T14:23:04;18.80;59.10
41533;DHT22;27262;-35.248;149.138;2023-07-13T14:25:34;18.80;59.10
41533;DHT22;27262;-35.248;149.138;2023-07-13T14:28:26;18.80;59.10
41533;DHT22;27262;-35.248;149.138;2023-07-13T14:30:58;18.80;59.10
41533;DHT22;27262;-35.248;149.138;2023-07-13T14:33:28;18.80;59.20
41533;DHT22;27262;-35.248;149.138;2023-07-13T14:35:59;18.70;59.10
41533;DHT22;27262;-35.248;149.138;2023-07-13T14:38:29;18.70;59.20
41533;DHT22;27262;-35.248;149.138;2023-07-13T14:41:00;18.70;59.20
41533;DHT22;27262;-35.248;149.138;2023-07-13T14:43:30;18.70;59.20
41533;DHT22;27262;-35.248;149.138;2023-07-13T14:46:01;18.60;59.20
41533;DHT22;27262;-35.248;149.138;2023-07-13T14:48:31;18.60;59.20
41533;DHT22;27262;-35.248;149.138;2023-07-13T14:51:02;18.60;59.20
41533;DHT22;27262;-35.248;149.138;2023-07-13T14:53:32;18.60;59.20
41533;DHT22;27262;-35.248;149.138;2023-07-13T14:56:10;18.60;59.20
41533;DHT22;27262;-35.248;149.138;2023-07-13T14:58:41;18.60;59.20
41533;DHT22;27262;-35.248;149.138;2023-07-13T15:01:15;18.50;59.20
41533;DHT22;27262;-35.248;149.138;2023-07-13T15:03:49;18.50;59.20
41533;DHT22;27262;-35.248;149.138;2023-07-13T15:06:21;18.50;59.20
41533;DHT22;27262;-35.248;149.138;2023-07-13T15:08:51;18.50;59.20
41533;DHT22;27262;-35.248;149.138;2023-07-13T15:11:21;18.40;59.20
41533;DHT22;27262;-35.248;149.138;2023-07-13T15:13:52;18.40;59.20
41533;DHT22;27262;-35.248;149.138;2023-07-13T15:16:24;18.40;59.20
41533;DHT22;27262;-35.248;149.138;2023-07-13T15:18:55;18.40;59.20
41533;DHT22;27262;-35.248;149.138;2023-07-13T15:21:26;18.30;59.20
41533;DHT22;27262;-35.248;149.138;2023-07-13T15:24:01;18.30;59.30
41533;DHT22;27262;-35.248;149.138;2023-07-13T15:26:32;18.30;59.30
41533;DHT22;27262;-35.248;149.138;2023-07-13T15:29:03;18.30;59.30
41533;DHT22;27262;-35.248;149.138;2023-07-13T15:31:35;18.30;59.30
41533;DHT22;27262;-35.248;149.138;2023-07-13T15:34:14;18.20;59.30
41533;DHT22;27262;-35.248;149.138;2023-07-13T15:36:45;18.20;59.30
41533;DHT22;27262;-35.248;149.138;2023-07-13T15:39:16;18.20;59.30
41533;DHT22;27262;-35.248;149.138;2023-07-13T15:41:47;18.20;59.30
41533;DHT22;27262;-35.248;149.138;2023-07-13T15:44:29;18.20;59.40
41533;DHT22;27262;-35.248;149.138;2023-07-13T15:47:01;18.10;59.20
41533;DHT22;27262;-35.248;149.138;2023-07-13T15:49:32;18.10;59.30
41533;DHT22;27262;-35.248;149.138;2023-07-13T15:52:03;18.10;59.30
41533;DHT22;27262;-35.248;149.138;2023-07-13T15:54:33;18.10;59.30
41533;DHT22;27262;-35.248;149.138;2023-07-13T15:57:04;18.00;59.30
41533;DHT22;27262;-35.248;149.138;2023-07-13T15:59:36;18.00;59.30
41533;DHT22;27262;-35.248;149.138;2023-07-13T16:02:14;18.00;59.30
41533;DHT22;27262;-35.248;149.138;2023-07-13T16:04:47;18.00;59.30